sensor_id;sensor_type;location;lat;lon;timestamp;temperature;humidity
20915;DHT22;10617;52.032;5.298;2023-10-19T00:08:42;11.60;99.90
20915;DHT22;10617;52.032;5.298;2023-10-19T00:12:43;11.60;99.90
20915;DHT22;10617;52.032;5.298;2023-10-19T00:16:45;11.70;99.90
20915;DHT22;10617;52.032;5.298;2023-10-19T00:20:54;11.70;99.90
20915;DHT22;10617;52.032;5.298;2023-10-19T00:24:56;11.80;99.90
20915;DHT22;10617;52.032;5.298;2023-10-19T00:28:59;11.80;99.90
20915;DHT22;10617;52.032;5.298;2023-10-19T00:33:07;11.80;99.90
20915;DHT22;10617;52.032;5.298;2023-10-19T00:37:18;11.90;99.90
20915;DHT22;10617;52.032;5.298;2023-10-19T00:51:29;11.90;99.90
20915;DHT22;10617;52.032;5.298;2023-10-19T00:55:32;12.00;99.90
20915;DHT22;10617;52.032;5.298;2023-10-19T00:59:36;12.00;99.90
20915;DHT22;10617;52.032;5.298;2023-10-19T01:03:45;12.00;99.90
20915;DHT22;10617;52.032;5.298;2023-10-19T01:07:47;12.10;99.90
20915;DHT22;10617;52.032;5.298;2023-10-19T01:11:54;12.10;99.90
20915;DHT22;10617;52.032;5.298;2023-10-19T01:15:56;12.10;99.90
20915;DHT22;10617;52.032;5.298;2023-10-19T01:20:00;12.20;99.90
20915;DHT22;10617;52.032;5.298;2023-10-19T01:24:06;12.20;99.90
20915;DHT22;10617;52.032;5.298;2023-10-19T01:28:09;12.20;99.90
20915;DHT22;10617;52.032;5.298;2023-10-19T01:32:12;12.20;99.90
20915;DHT22;10617;52.032;5.298;2023-10-19T01:36:16;12.30;99.90
20915;DHT22;10617;52.032;5.298;2023-10-19T01:50:32;12.40;99.90
20915;DHT22;10617;52.032;5.298;2023-10-19T01:54:33;12.50;99.90
20915;DHT22;10617;52.032;5.298;2023-10-19T02:13:51;12.70;99.90
20915;DHT22;10617;52.032;5.298;2023-10-19T02:17:53;12.80;99.90
20915;DHT22;10617;52.032;5.298;2023-10-19T02:22:00;12.90;99.90
20915;DHT22;10617;52.032;5.298;2023-10-19T02:26:05;13.00;99.90
20915;DHT22;10617;52.032;5.298;2023-10-19T02:30:07;13.00;99.90
20915;DHT22;10617;52.032;5.298;2023-10-19T02:34:09;13.10;99.90
20915;DHT22;10617;52.032;5.298;2023-10-19T02:38:11;13.20;99.90
20915;DHT22;10617;52.032;5.298;2023-10-19T03:01:49;13.40;99.90
20915;DHT22;10617;52.032;5.298;2023-10-19T03:05:52;13.50;99.90
20915;DHT22;10617;52.032;5.298;2023-10-19T03:09:56;13.50;99.90
20915;DHT22;10617;52.032;5.298;2023-10-19T03:13:57;13.50;99.90
20915;DHT22;10617;52.032;5.298;2023-10-19T03:17:59;13.50;99.90
20915;DHT22;10617;52.032;5.298;2023-10-19T03:22:02;13.60;99.90
20915;DHT22;10617;52.032;5.298;2023-10-19T03:26:07;13.60;99.90
20915;DHT22;10617;52.032;5.298;2023-10-19T03:30:27;13.60;99.90
20915;DHT22;10617;52.032;5.298;2023-10-19T03:34:29;13.70;99.90
20915;DHT22;10617;52.032;5.298;2023-10-19T03:38:35;13.70;99.90
20915;DHT22;10617;52.032;5.298;2023-10-19T03:42:38;13.70;99.90
20915;DHT22;10617;52.032;5.298;2023-10-19T03:46:43;13.70;99.90
20915;DHT22;10617;52.032;5.298;2023-10-19T03:50:54;13.80;99.90
20915;DHT22;10617;52.032;5.298;2023-10-19T03:54:57;13.80;99.90
20915;DHT22;10617;52.032;5.298;2023-10-19T03:58:59;13.90;99.90
20915;DHT22;10617;52.032;5.298;2023-10-19T04:03:01;13.90;99.90
20915;DHT22;10617;52.032;5.298;2023-10-19T04:07:03;14.00;99.90
20915;DHT22;10617;52.032;5.298;2023-10-19T04:11:12;14.00;99.90
20915;DHT22;10617;52.032;5.298;2023-10-19T04:15:23;14.10;99.90
20915;DHT22;10617;52.032;5.298;2023-10-19T04:19:27;14.10;99.90
20915;DHT22;10617;52.032;5.298;2023-10-19T04:23:30;14.10;99.90
20915;DHT22;10617;52.032;5.298;2023-10-19T04:27:36;14.20;99.90
20915;DHT22;10617;52.032;5.298;2023-10-19T04:31:38;14.20;99.90
20915;DHT22;10617;52.032;5.298;2023-10-19T04:35:50;14.10;99.90
20915;DHT22;10617;52.032;5.298;2023-10-19T04:39:57;14.10;99.90
20915;DHT22;10617;52.032;5.298;2023-10-19T04:43:58;14.10;99.90
20915;DHT22;10617;52.032;5.298;2023-10-19T04:48:02;14.10;99.90
20915;DHT22;10617;52.032;5.298;2023-10-19T04:52:06;14.10;99.90
20915;DHT22;10617;52.032;5.298;2023-10-19T04:56:07;14.20;99.90
20915;DHT22;10617;52.032;5.298;2023-10-19T05:00:10;14.20;99.90
20915;DHT22;10617;52.032;5.298;2023-10-19T05:04:16;14.20;99.90
20915;DHT22;10617;52.032;5.298;2023-10-19T05:08:18;14.20;99.90
20915;DHT22;10617;52.032;5.298;2023-10-19T05:12:20;14.20;99.90
20915;DHT22;10617;52.032;5.298;2023-10-19T05:16:23;14.20;99.90
20915;DHT22;10617;52.032;5.298;2023-10-19T05:20:24;14.20;99.90
20915;DHT22;10617;52.032;5.298;2023-10-19T05:24:27;14.20;99.90
20915;DHT22;10617;52.032;5.298;2023-10-19T05:28:29;14.20;99.90
20915;DHT22;10617;52.032;5.298;2023-10-19T05:32:31;14.20;99.90
20915;DHT22;10617;52.032;5.298;2023-10-19T05:36:32;14.30;99.90
20915;DHT22;10617;52.032;5.298;2023-10-19T05:40:34;14.30;99.90
20915;DHT22;10617;52.032;5.298;2023-10-19T05:44:37;14.30;99.90
20915;DHT22;10617;52.032;5.298;2023-10-19T05:48:39;14.30;99.90
20915;DHT22;10617;52.032;5.298;2023-10-19T05:52:41;14.30;99.90
20915;DHT22;10617;52.032;5.298;2023-10-19T05:56:43;14.30;99.90
20915;DHT22;10617;52.032;5.298;2023-10-19T06:00:45;14.40;99.90
20915;DHT22;10617;52.032;5.298;2023-10-19T06:24:34;14.40;99.90
20915;DHT22;10617;52.032;5.298;2023-10-19T06:28:36;14.40;99.90
20915;DHT22;10617;52.032;5.298;2023-10-19T06:32:40;14.40;99.90
20915;DHT22;10617;52.032;5.298;2023-10-19T06:36:42;14.40;99.90
20915;DHT22;10617;52.032;5.298;2023-10-19T06:40:43;14.50;99.90
20915;DHT22;10617;52.032;5.298;2023-10-19T06:44:45;14.40;99.90
20915;DHT22;10617;52.032;5.298;2023-10-19T06:48:47;14.50;99.90
20915;DHT22;10617;52.032;5.298;2023-10-19T06:52:48;14.40;99.90
20915;DHT22;10617;52.032;5.298;2023-10-19T06:56:50;14.40;99.90
20915;DHT22;10617;52.032;5.298;2023-10-19T07:00:52;14.40;99.90
20915;DHT22;10617;52.032;5.298;2023-10-19T07:05:01;14.50;99.90
20915;DHT22;10617;52.032;5.298;2023-10-19T07:09:04;14.50;99.90
20915;DHT22;10617;52.032;5.298;2023-10-19T07:13:07;14.50;99.90
20915;DHT22;10617;52.032;5.298;2023-10-19T07:17:10;14.50;99.90
20915;DHT22;10617;52.032;5.298;2023-10-19T07:21:13;14.50;99.90
20915;DHT22;10617;52.032;5.298;2023-10-19T07:25:15;14.50;99.90
20915;DHT22;10617;52.032;5.298;2023-10-19T07:29:17;14.50;99.90
20915;DHT22;10617;52.032;5.298;2023-10-19T07:33:20;14.60;99.90
20915;DHT22;10617;52.032;5.298;2023-10-19T07:37:22;14.60;99.90
20915;DHT22;10617;52.032;5.298;2023-10-19T07:41:24;14.70;99.90
20915;DHT22;10617;52.032;5.298;2023-10-19T07:45:25;14.70;99.90
20915;DHT22;10617;52.032;5.298;2023-10-19T07:49:27;14.70;99.90
20915;DHT22;10617;52.032;5.298;2023-10-19T07:53:29;14.80;99.90
20915;DHT22;10617;52.032;5.298;2023-10-19T07:57:31;14.80;99.90
20915;DHT22;10617;52.032;5.298;2023-10-19T08:01:33;14.80;99.90
20915;DHT22;10617;52.032;5.298;2023-10-19T08:05:35;14.80;99.90
20915;DHT22;10617;52.032;5.298;2023-10-19T08:09:37;14.80;99.90
20915;DHT22;10617;52.032;5.298;2023-10-19T08:13:39;14.90;99.90
20915;DHT22;10617;52.032;5.298;2023-10-19T08:17:42;14.90;99.90
20915;DHT22;10617;52.032;5.298;2023-10-19T08:21:44;14.90;99.90
20915;DHT22;10617;52.032;5.298;2023-10-19T08:25:45;15.00;99.90
20915;DHT22;10617;52.032;5.298;2023-10-19T08:29:57;15.00;99.90
20915;DHT22;10617;52.032;5.298;2023-10-19T08:33:58;15.00;99.90
20915;DHT22;10617;52.032;5.298;2023-10-19T08:38:00;15.10;99.90
20915;DHT22;10617;52.032;5.298;2023-10-19T08:42:02;15.10;99.90
20915;DHT22;10617;52.032;5.298;2023-10-19T08:46:05;15.10;99.90
20915;DHT22;10617;52.032;5.298;2023-10-19T08:50:07;15.20;99.90
20915;DHT22;10617;52.032;5.298;2023-10-19T08:54:10;15.30;99.90
20915;DHT22;10617;52.032;5.298;2023-10-19T08:58:12;15.30;99.90
20915;DHT22;10617;52.032;5.298;2023-10-19T09:02:14;15.40;99.90
20915;DHT22;10617;52.032;5.298;2023-10-19T09:06:17;15.50;99.90
20915;DHT22;10617;52.032;5.298;2023-10-19T09:10:19;15.60;99.90
20915;DHT22;10617;52.032;5.298;2023-10-19T09:14:33;15.80;99.90
20915;DHT22;10617;52.032;5.298;2023-10-19T09:18:35;15.90;99.90
20915;DHT22;10617;52.032;5.298;2023-10-19T09:22:36;16.00;99.90
20915;DHT22;10617;52.032;5.298;2023-10-19T09:26:38;16.00;99.90
20915;DHT22;10617;52.032;5.298;2023-10-19T09:30:41;16.00;99.90
20915;DHT22;10617;52.032;5.298;2023-10-19T09:34:44;16.00;99.90
20915;DHT22;10617;52.032;5.298;2023-10-19T09:38:46;16.10;99.90
20915;DHT22;10617;52.032;5.298;2023-10-19T09:42:53;16.30;99.90
20915;DHT22;10617;52.032;5.298;2023-10-19T09:46:55;16.50;99.90
20915;DHT22;10617;52.032;5.298;2023-10-19T09:50:57;16.50;99.90
20915;DHT22;10617;52.032;5.298;2023-10-19T09:59:29;16.70;99.90
20915;DHT22;10617;52.032;5.298;2023-10-19T10:03:42;16.80;99.90
20915;DHT22;10617;52.032;5.298;2023-10-19T10:07:44;16.80;99.90
20915;DHT22;10617;52.032;5.298;2023-10-19T10:11:51;16.70;99.90
20915;DHT22;10617;52.032;5.298;2023-10-19T10:15:54;16.70;99.90
20915;DHT22;10617;52.032;5.298;2023-10-19T10:20:28;16.70;99.90
20915;DHT22;10617;52.032;5.298;2023-10-19T10:24:18;16.70;99.90
20915;DHT22;10617;52.032;5.298;2023-10-19T10:28:21;16.70;99.90
20915;DHT22;10617;52.032;5.298;2023-10-19T10:36:59;16.80;99.90
20915;DHT22;10617;52.032;5.298;2023-10-19T10:41:02;16.80;99.90
20915;DHT22;10617;52.032;5.298;2023-10-19T10:45:03;16.90;99.90
20915;DHT22;10617;52.032;5.298;2023-10-19T10:49:09;16.90;99.90
20915;DHT22;10617;52.032;5.298;2023-10-19T10:53:12;16.90;99.90
20915;DHT22;10617;52.032;5.298;2023-10-19T10:57:14;16.90;99.90
20915;DHT22;10617;52.032;5.298;2023-10-19T11:01:29;17.00;99.90
20915;DHT22;10617;52.032;5.298;2023-10-19T11:05:31;17.10;99.90
20915;DHT22;10617;52.032;5.298;2023-10-19T11:09:43;17.20;99.90
20915;DHT22;10617;52.032;5.298;2023-10-19T11:13:46;17.40;99.90
20915;DHT22;10617;52.032;5.298;2023-10-19T11:17:47;17.60;99.90
20915;DHT22;10617;52.032;5.298;2023-10-19T11:21:53;17.80;99.90
20915;DHT22;10617;52.032;5.298;2023-10-19T11:25:59;17.90;99.90
20915;DHT22;10617;52.032;5.298;2023-10-19T11:30:00;17.90;99.90
20915;DHT22;10617;52.032;5.298;2023-10-19T11:34:08;18.00;99.90
20915;DHT22;10617;52.032;5.298;2023-10-19T11:38:11;18.20;99.90
20915;DHT22;10617;52.032;5.298;2023-10-19T11:42:12;18.50;99.90
20915;DHT22;10617;52.032;5.298;2023-10-19T11:46:15;18.60;99.90
20915;DHT22;10617;52.032;5.298;2023-10-19T11:50:17;18.50;99.90
20915;DHT22;10617;52.032;5.298;2023-10-19T11:54:20;18.40;99.90
20915;DHT22;10617;52.032;5.298;2023-10-19T11:58:22;18.30;99.90
20915;DHT22;10617;52.032;5.298;2023-10-19T12:02:24;18.30;99.90
20915;DHT22;10617;52.032;5.298;2023-10-19T12:06:26;18.20;99.90
20915;DHT22;10617;52.032;5.298;2023-10-19T12:10:27;18.10;99.90
20915;DHT22;10617;52.032;5.298;2023-10-19T12:14:38;18.10;99.90
20915;DHT22;10617;52.032;5.298;2023-10-19T12:18:40;18.10;99.90
20915;DHT22;10617;52.032;5.298;2023-10-19T12:22:43;18.00;99.90
20915;DHT22;10617;52.032;5.298;2023-10-19T12:26:45;18.00;99.90
20915;DHT22;10617;52.032;5.298;2023-10-19T12:30:47;17.90;99.90
20915;DHT22;10617;52.032;5.298;2023-10-19T12:34:49;17.90;99.90
20915;DHT22;10617;52.032;5.298;2023-10-19T12:38:54;17.90;99.90
20915;DHT22;10617;52.032;5.298;2023-10-19T12:42:56;17.90;99.90
20915;DHT22;10617;52.032;5.298;2023-10-19T12:46:59;17.90;99.90
20915;DHT22;10617;52.032;5.298;2023-10-19T12:51:03;17.80;99.90
20915;DHT22;10617;52.032;5.298;2023-10-19T12:55:08;17.80;99.90
20915;DHT22;10617;52.032;5.298;2023-10-19T12:59:10;17.70;99.90
20915;DHT22;10617;52.032;5.298;2023-10-19T13:03:12;17.70;99.90
20915;DHT22;10617;52.032;5.298;2023-10-19T13:07:17;17.70;99.90
20915;DHT22;10617;52.032;5.298;2023-10-19T13:11:19;17.60;99.90
20915;DHT22;10617;52.032;5.298;2023-10-19T13:15:21;17.60;99.90
20915;DHT22;10617;52.032;5.298;2023-10-19T13:19:22;17.50;99.90
20915;DHT22;10617;52.032;5.298;2023-10-19T13:23:27;17.50;99.90
20915;DHT22;10617;52.032;5.298;2023-10-19T13:27:30;17.40;99.90
20915;DHT22;10617;52.032;5.298;2023-10-19T13:31:33;17.40;99.90
20915;DHT22;10617;52.032;5.298;2023-10-19T13:35:36;17.30;99.90
20915;DHT22;10617;52.032;5.298;2023-10-19T13:39:38;17.30;99.90
20915;DHT22;10617;52.032;5.298;2023-10-19T13:43:41;17.30;99.90
20915;DHT22;10617;52.032;5.298;2023-10-19T13:47:46;17.30;99.90
20915;DHT22;10617;52.032;5.298;2023-10-19T13:51:47;17.30;99.90
20915;DHT22;10617;52.032;5.298;2023-10-19T13:55:49;17.30;99.90
20915;DHT22;10617;52.032;5.298;2023-10-19T13:59:51;17.30;99.90
20915;DHT22;10617;52.032;5.298;2023-10-19T14:03:54;17.30;99.90
20915;DHT22;10617;52.032;5.298;2023-10-19T14:07:56;17.30;99.90
20915;DHT22;10617;52.032;5.298;2023-10-19T14:11:58;17.30;99.90
20915;DHT22;10617;52.032;5.298;2023-10-19T14:16:00;17.30;99.90
20915;DHT22;10617;52.032;5.298;2023-10-19T14:20:06;17.20;99.90
20915;DHT22;10617;52.032;5.298;2023-10-19T14:24:08;17.20;99.90
20915;DHT22;10617;52.032;5.298;2023-10-19T14:28:10;17.20;99.90
20915;DHT22;10617;52.032;5.298;2023-10-19T14:32:11;17.20;99.90
20915;DHT22;10617;52.032;5.298;2023-10-19T14:36:14;17.20;99.90
20915;DHT22;10617;52.032;5.298;2023-10-19T14:40:16;17.10;99.90
20915;DHT22;10617;52.032;5.298;2023-10-19T14:44:18;17.10;99.90
20915;DHT22;10617;52.032;5.298;2023-10-19T14:48:21;17.10;99.90
20915;DHT22;10617;52.032;5.298;2023-10-19T14:52:23;17.10;99.90
20915;DHT22;10617;52.032;5.298;2023-10-19T14:56:25;17.00;99.90
20915;DHT22;10617;52.032;5.298;2023-10-19T15:00:28;17.00;99.90
20915;DHT22;10617;52.032;5.298;2023-10-19T15:04:35;17.00;99.90
20915;DHT22;10617;52.032;5.298;2023-10-19T15:08:39;17.00;99.90
20915;DHT22;10617;52.032;5.298;2023-10-19T15:12:41;17.00;99.90
20915;DHT22;10617;52.032;5.298;2023-10-19T15:16:43;17.00;99.90
20915;DHT22;10617;52.032;5.298;2023-10-19T15:20:45;16.90;99.90
20915;DHT22;10617;52.032;5.298;2023-10-19T15:24:50;17.00;99.90
20915;DHT22;10617;52.032;5.298;2023-10-19T15:28:52;17.00;99.90
20915;DHT22;10617;52.032;5.298;2023-10-19T15:32:54;17.00;99.90
20915;DHT22;10617;52.032;5.298;2023-10-19T15:36:56;17.00;99.90
20915;DHT22;10617;52.032;5.298;2023-10-19T15:40:58;17.30;99.90
20915;DHT22;10617;52.032;5.298;2023-10-19T15:44:59;17.60;99.90
20915;DHT22;10617;52.032;5.298;2023-10-19T15:49:02;17.90;99.90
20915;DHT22;10617;52.032;5.298;2023-10-19T15:53:04;18.00;99.90
20915;DHT22;10617;52.032;5.298;2023-10-19T15:57:06;17.90;99.90
20915;DHT22;10617;52.032;5.298;2023-10-19T16:01:07;17.80;99.90
20915;DHT22;10617;52.032;5.298;2023-10-19T16:05:12;17.70;99.90
20915;DHT22;10617;52.032;5.298;2023-10-19T16:09:17;17.50;99.90
20915;DHT22;10617;52.032;5.298;2023-10-19T16:13:20;17.40;99.90
20915;DHT22;10617;52.032;5.298;2023-10-19T16:17:22;17.30;99.90
20915;DHT22;10617;52.032;5.298;2023-10-19T16:21:24;17.20;99.90
20915;DHT22;10617;52.032;5.298;2023-10-19T16:25:26;17.10;99.90
20915;DHT22;10617;52.032;5.298;2023-10-19T16:29:28;17.10;99.90
20915;DHT22;10617;52.032;5.298;2023-10-19T16:33:30;17.00;99.90
20915;DHT22;10617;52.032;5.298;2023-10-19T16:37:31;16.90;99.90
20915;DHT22;10617;52.032;5.298;2023-10-19T16:41:34;16.90;99.90
20915;DHT22;10617;52.032;5.298;2023-10-19T16:45:36;16.80;99.90
20915;DHT22;10617;52.032;5.298;2023-10-19T16:49:38;16.80;99.90
20915;DHT22;10617;52.032;5.298;2023-10-19T16:53:40;16.80;99.90
20915;DHT22;10617;52.032;5.298;2023-10-19T16:57:42;16.70;99.90
20915;DHT22;10617;52.032;5.298;2023-10-19T17:01:44;16.70;99.90
20915;DHT22;10617;52.032;5.298;2023-10-19T17:05:46;16.80;99.90
20915;DHT22;10617;52.032;5.298;2023-10-19T17:09:47;16.70;99.90
20915;DHT22;10617;52.032;5.298;2023-10-19T17:13:49;16.70;99.90
20915;DHT22;10617;52.032;5.298;2023-10-19T17:17:57;16.70;99.90
20915;DHT22;10617;52.032;5.298;2023-10-19T17:21:59;16.70;99.90
20915;DHT22;10617;52.032;5.298;2023-10-19T17:26:01;16.70;99.90
20915;DHT22;10617;52.032;5.298;2023-10-19T17:30:03;16.70;99.90
20915;DHT22;10617;52.032;5.298;2023-10-19T17:34:06;16.70;99.90
20915;DHT22;10617;52.032;5.298;2023-10-19T17:38:08;16.70;99.90
20915;DHT22;10617;52.032;5.298;2023-10-19T17:42:10;16.70;99.90
20915;DHT22;10617;52.032;5.298;2023-10-19T17:46:12;16.70;99.90
20915;DHT22;10617;52.032;5.298;2023-10-19T17:50:15;16.70;99.90
20915;DHT22;10617;52.032;5.298;2023-10-19T17:54:18;16.70;99.90
20915;DHT22;10617;52.032;5.298;2023-10-19T17:58:20;16.60;99.90
20915;DHT22;10617;52.032;5.298;2023-10-19T18:02:22;16.60;99.90
20915;DHT22;10617;52.032;5.298;2023-10-19T18:06:24;16.60;99.90
20915;DHT22;10617;52.032;5.298;2023-10-19T18:10:26;16.60;99.90
20915;DHT22;10617;52.032;5.298;2023-10-19T18:14:31;16.60;99.90
20915;DHT22;10617;52.032;5.298;2023-10-19T18:18:32;16.50;99.90
20915;DHT22;10617;52.032;5.298;2023-10-19T18:22:34;16.50;99.90
20915;DHT22;10617;52.032;5.298;2023-10-19T18:26:37;16.50;99.90
20915;DHT22;10617;52.032;5.298;2023-10-19T18:30:39;16.50;99.90
20915;DHT22;10617;52.032;5.298;2023-10-19T18:34:42;16.40;99.90
20915;DHT22;10617;52.032;5.298;2023-10-19T18:38:43;16.40;99.90
20915;DHT22;10617;52.032;5.298;2023-10-19T18:42:45;16.40;99.90
20915;DHT22;10617;52.032;5.298;2023-10-19T18:46:47;16.40;99.90
20915;DHT22;10617;52.032;5.298;2023-10-19T18:50:56;16.30;99.90
20915;DHT22;10617;52.032;5.298;2023-10-19T18:54:58;16.30;99.90
20915;DHT22;10617;52.032;5.298;2023-10-19T18:59:00;16.30;99.90
20915;DHT22;10617;52.032;5.298;2023-10-19T19:03:02;16.30;99.90
20915;DHT22;10617;52.032;5.298;2023-10-19T19:07:04;16.20;99.90
20915;DHT22;10617;52.032;5.298;2023-10-19T19:11:09;16.20;99.90
20915;DHT22;10617;52.032;5.298;2023-10-19T19:15:11;16.20;99.90
20915;DHT22;10617;52.032;5.298;2023-10-19T19:19:15;16.20;99.90
20915;DHT22;10617;52.032;5.298;2023-10-19T19:23:16;16.10;99.90
20915;DHT22;10617;52.032;5.298;2023-10-19T19:27:18;16.10;99.90
20915;DHT22;10617;52.032;5.298;2023-10-19T19:31:20;16.10;99.90
20915;DHT22;10617;52.032;5.298;2023-10-19T19:35:22;16.10;99.90
20915;DHT22;10617;52.032;5.298;2023-10-19T19:39:24;16.00;99.90
20915;DHT22;10617;52.032;5.298;2023-10-19T19:43:26;16.00;99.90
20915;DHT22;10617;52.032;5.298;2023-10-19T19:52:31;16.00;99.90
20915;DHT22;10617;52.032;5.298;2023-10-19T19:56:32;15.90;99.90
20915;DHT22;10617;52.032;5.298;2023-10-19T20:00:34;16.00;99.90
20915;DHT22;10617;52.032;5.298;2023-10-19T20:04:37;15.90;99.90
20915;DHT22;10617;52.032;5.298;2023-10-19T20:08:39;15.90;99.90
20915;DHT22;10617;52.032;5.298;2023-10-19T20:12:41;16.00;99.90
20915;DHT22;10617;52.032;5.298;2023-10-19T20:16:46;15.90;99.90
20915;DHT22;10617;52.032;5.298;2023-10-19T20:20:48;15.90;99.90
20915;DHT22;10617;52.032;5.298;2023-10-19T20:24:49;15.90;99.90
20915;DHT22;10617;52.032;5.298;2023-10-19T20:28:51;15.90;99.90
20915;DHT22;10617;52.032;5.298;2023-10-19T20:32:53;15.90;99.90
20915;DHT22;10617;52.032;5.298;2023-10-19T20:36:54;15.90;99.90
20915;DHT22;10617;52.032;5.298;2023-10-19T20:40:56;15.90;99.90
20915;DHT22;10617;52.032;5.298;2023-10-19T20:44:58;15.80;99.90
20915;DHT22;10617;52.032;5.298;2023-10-19T20:49:00;15.80;99.90
20915;DHT22;10617;52.032;5.298;2023-10-19T20:53:01;15.80;99.90
20915;DHT22;10617;52.032;5.298;2023-10-19T20:57:04;15.80;99.90
20915;DHT22;10617;52.032;5.298;2023-10-19T21:01:06;15.80;99.90
20915;DHT22;10617;52.032;5.298;2023-10-19T21:05:10;15.80;99.90
20915;DHT22;10617;52.032;5.298;2023-10-19T21:09:12;15.80;99.90
20915;DHT22;10617;52.032;5.298;2023-10-19T21:13:14;15.80;99.90
20915;DHT22;10617;52.032;5.298;2023-10-19T21:17:16;15.80;99.90
20915;DHT22;10617;52.032;5.298;2023-10-19T21:21:17;15.70;99.90
20915;DHT22;10617;52.032;5.298;2023-10-19T21:25:19;15.70;99.90
20915;DHT22;10617;52.032;5.298;2023-10-19T21:29:23;15.70;99.90
20915;DHT22;10617;52.032;5.298;2023-10-19T21:33:25;15.70;99.90
20915;DHT22;10617;52.032;5.298;2023-10-19T21:37:26;15.80;99.90
20915;DHT22;10617;52.032;5.298;2023-10-19T21:46:32;15.80;99.90
20915;DHT22;10617;52.032;5.298;2023-10-19T21:50:34;15.80;99.90
20915;DHT22;10617;52.032;5.298;2023-10-19T21:54:35;15.80;99.90
20915;DHT22;10617;52.032;5.298;2023-10-19T21:58:37;15.80;99.90
20915;DHT22;10617;52.032;5.298;2023-10-19T22:02:39;15.80;99.90
20915;DHT22;10617;52.032;5.298;2023-10-19T22:06:49;15.80;99.90
20915;DHT22;10617;52.032;5.298;2023-10-19T22:10:50;15.80;99.90
20915;DHT22;10617;52.032;5.298;2023-10-19T22:14:53;15.70;99.90
20915;DHT22;10617;52.032;5.298;2023-10-19T22:18:55;15.70;99.90
20915;DHT22;10617;52.032;5.298;2023-10-19T22:22:59;15.80;99.90
20915;DHT22;10617;52.032;5.298;2023-10-19T22:27:01;15.80;99.90
20915;DHT22;10617;52.032;5.298;2023-10-19T22:31:02;15.80;99.90
20915;DHT22;10617;52.032;5.298;2023-10-19T22:35:05;15.80;99.90
20915;DHT22;10617;52.032;5.298;2023-10-19T22:39:10;15.80;99.90
20915;DHT22;10617;52.032;5.298;2023-10-19T22:43:12;15.80;99.90
20915;DHT22;10617;52.032;5.298;2023-10-19T22:47:14;15.80;99.90
20915;DHT22;10617;52.032;5.298;2023-10-19T22:51:17;15.80;99.90
20915;DHT22;10617;52.032;5.298;2023-10-19T22:55:18;15.80;99.90
20915;DHT22;10617;52.032;5.298;2023-10-19T22:59:20;15.80;99.90
20915;DHT22;10617;52.032;5.298;2023-10-19T23:03:22;15.80;99.90
20915;DHT22;10617;52.032;5.298;2023-10-19T23:07:23;15.80;99.90
20915;DHT22;10617;52.032;5.298;2023-10-19T23:11:25;15.80;99.90
20915;DHT22;10617;52.032;5.298;2023-10-19T23:35:45;15.80;99.90
20915;DHT22;10617;52.032;5.298;2023-10-19T23:39:47;15.80;99.90
20915;DHT22;10617;52.032;5.298;2023-10-19T23:43:48;15.80;99.90
20915;DHT22;10617;52.032;5.298;2023-10-19T23:47:50;15.70;99.90
20915;DHT22;10617;52.032;5.298;2023-10-19T23:51:52;15.70;99.90
20915;DHT22;10617;52.032;5.298;2023-10-19T23:55:53;15.70;99.90
20915;DHT22;10617;52.032;5.298;2023-10-19T23:59:55;15.70;99.90
